KBVY/BVY METAR and TAF weather

Enter ICAO airport designator
Station Type Date Time Source
KBVY METAR 2018/12/10 18:53 UTC NOAA

KBVY 101853Z 31007KT 10SM CLR 03/M11 A3007 RMK AO2 SLP181 T00281106


Station Type Date Time Source
KBVY Decoded METAR 2018/12/10 18:53 UTC NOAA

BEVERLY MUNICIPAL AIRPORT, MA, United States (KBVY) 42-35N 070-55W 28M
Dec 10, 2018 - 01:53 PM EST / 2018.12.10 1853 UTC
Wind: from the NW (310 degrees) at 8 MPH (7 KT):0
Visibility: 10 mile(s):0
Sky conditions: clear
Temperature: 37.0 F (2.8 C)
Dew Point: 12.9 F (-10.6 C)
Relative Humidity: 36%
Pressure (altimeter): 30.07 in. Hg (1018 hPa)
ob: KBVY 101853Z 31007KT 10SM CLR 03/M11 A3007 RMK AO2 SLP181 T00281106
cycle: 19

Station Type Date Time Source
KBVY TAF UTC NOAA

Error!


Example: see airport list